Time;durP1;ratioP1;P1;durP2;ratioP2;P2;SDS_P1;SDS_P2;PMS_P1;PMS_P2;Temp;Humidity;BMP_temperature;BMP_pressure;BME280_temperature;BME280_humidity;BME280_pressure;Samples;Min_cycle;Max_cycle;Signal;HPM_P1;HPM_P2
2021/05/14 00:00:00;;;;;;;3.77;2.00;;;;;;;18.58;59.52;99203.16;2075486;28;20024;-63
2021/05/14 00:01:01;;;;;;;5.20;2.07;;;;;;;18.59;59.50;99212.19;2072011;28;20651;-63
2021/05/14 00:02:03;;;;;;;3.92;1.92;;;;;;;18.61;59.56;99212.88;2076874;28;20083;-64
2021/05/14 00:03:04;;;;;;;3.60;1.77;;;;;;;18.60;59.60;99209.28;2072392;28;20385;-64
2021/05/14 00:04:05;;;;;;;4.40;1.97;;;;;;;18.60;59.54;99206.56;2071508;28;20041;-63
2021/05/14 00:05:07;;;;;;;3.77;2.13;;;;;;;18.60;59.56;99211.19;2072058;28;20025;-63
2021/05/14 00:06:07;;;;;;;4.72;2.17;;;;;;;18.60;59.55;99206.56;2071189;28;20057;-63
2021/05/14 00:07:08;;;;;;;3.97;1.90;;;;;;;18.61;59.42;99208.25;2073139;28;20041;-63
2021/05/14 00:08:08;;;;;;;6.37;2.30;;;;;;;18.61;59.30;99213.72;2072452;28;20473;-63
2021/05/14 00:09:09;;;;;;;5.53;2.40;;;;;;;18.59;59.43;99215.78;2072502;28;20022;-63
2021/05/14 00:10:10;;;;;;;4.30;2.10;;;;;;;18.60;59.50;99211.19;2072134;28;20029;-63
2021/05/14 00:11:10;;;;;;;3.40;2.20;;;;;;;18.60;59.55;99211.19;2072316;28;20026;-64
2021/05/14 00:12:11;;;;;;;5.83;2.10;;;;;;;18.60;59.42;99212.03;2072471;28;20161;-63
2021/05/14 00:13:11;;;;;;;4.70;2.90;;;;;;;18.60;59.40;99208.44;2072101;28;20412;-63
2021/05/14 00:14:13;;;;;;;4.23;1.77;;;;;;;18.60;59.42;99205.72;2072046;28;20029;-63
2021/05/14 00:15:13;;;;;;;4.65;1.80;;;;;;;18.59;59.44;99204.88;2071764;28;20420;-63
2021/05/14 00:16:14;;;;;;;3.63;1.93;;;;;;;18.59;59.52;99204.00;2072064;28;20093;-63
2021/05/14 00:17:14;;;;;;;2.97;1.90;;;;;;;18.60;59.54;99216.63;2071948;28;20366;-63
2021/05/14 00:18:15;;;;;;;3.73;1.87;;;;;;;18.60;59.46;99209.28;2075492;28;20039;-63
2021/05/14 00:19:15;;;;;;;3.73;1.90;;;;;;;18.59;59.54;99207.59;2066538;28;20030;-63
2021/05/14 00:20:17;;;;;;;5.77;2.03;;;;;;;18.59;59.48;99204.00;2067385;28;20029;-63
2021/05/14 00:21:17;;;;;;;4.90;1.67;;;;;;;18.58;59.47;99214.06;2070490;28;20143;-63
2021/05/14 00:22:18;;;;;;;3.33;1.90;;;;;;;18.58;59.32;99210.50;2072241;28;20037;-63
2021/05/14 00:23:18;;;;;;;5.63;2.17;;;;;;;18.57;59.53;99206.91;2072562;28;20034;-63
2021/05/14 00:24:19;;;;;;;3.50;2.10;;;;;;;18.58;59.27;99202.31;2071054;28;20029;-62
2021/05/14 00:25:19;;;;;;;3.53;1.70;;;;;;;18.58;59.49;99202.31;2077793;28;20021;-63
2021/05/14 00:26:20;;;;;;;4.90;1.93;;;;;;;18.58;59.53;99208.59;2072174;28;20436;-65
2021/05/14 00:27:20;;;;;;;4.70;2.00;;;;;;;18.58;59.53;99210.50;2071458;28;20028;-65
2021/05/14 00:28:21;;;;;;;4.77;1.80;;;;;;;18.59;59.29;99212.19;2071799;28;20269;-63
2021/05/14 00:29:21;;;;;;;4.07;2.13;;;;;;;18.57;59.36;99206.03;2071475;28;20033;-62
2021/05/14 00:30:22;;;;;;;5.60;2.07;;;;;;;18.58;59.47;99207.75;2072186;28;20443;-62
2021/05/14 00:31:23;;;;;;;2.77;1.77;;;;;;;18.58;59.39;99210.50;2072200;28;20101;-65
2021/05/14 00:32:24;;;;;;;3.78;1.83;;;;;;;18.59;59.49;99209.44;2072000;28;20037;-65
2021/05/14 00:33:25;;;;;;;3.40;2.07;;;;;;;18.57;59.40;99201.47;2080375;28;20057;-65
2021/05/14 00:34:25;;;;;;;6.93;2.33;;;;;;;18.57;59.33;99206.03;2080066;28;20268;-65
2021/05/14 00:35:26;;;;;;;3.93;2.27;;;;;;;18.57;59.32;99201.47;2079421;28;20459;-65
2021/05/14 00:36:26;;;;;;;3.77;1.60;;;;;;;18.58;59.44;99200.41;2073329;28;20084;-65
2021/05/14 00:37:27;;;;;;;4.83;2.20;;;;;;;18.59;59.36;99214.91;2071328;28;20030;-62
2021/05/14 00:38:27;;;;;;;3.70;1.53;;;;;;;18.58;59.33;99213.22;2073829;28;20024;-62
2021/05/14 00:39:28;;;;;;;3.23;1.97;;;;;;;18.57;59.40;99217.84;2076039;28;20037;-62
2021/05/14 00:40:29;;;;;;;2.50;1.60;;;;;;;18.59;59.17;99201.25;2074269;28;20053;-62
2021/05/14 00:41:29;;;;;;;4.25;1.85;;;;;;;18.59;59.22;99206.72;2072005;28;20469;-62
2021/05/14 00:42:30;;;;;;;2.27;1.70;;;;;;;18.58;59.31;99202.31;2072511;28;20412;-62
2021/05/14 00:43:31;;;;;;;2.60;1.63;;;;;;;18.57;59.26;99196.00;2072231;28;20025;-63
2021/05/14 00:44:45;;;;;;;3.72;1.98;;;;;;;18.57;59.24;99206.91;2076449;28;20026;-62
2021/05/14 00:45:45;;;;;;;4.05;2.15;;;;;;;18.56;59.39;99212.53;2072144;28;20117;-63
2021/05/14 00:46:46;;;;;;;2.20;1.50;;;;;;;18.56;59.42;99216.09;2075539;28;20033;-65
2021/05/14 00:47:47;;;;;;;3.20;1.63;;;;;;;18.58;59.34;99218.69;2072023;28;20393;-65
2021/05/14 00:48:47;;;;;;;4.80;1.80;;;;;;;18.56;59.24;99216.09;2066609;28;20055;-65
2021/05/14 00:49:48;;;;;;;3.10;1.60;;;;;;;18.57;59.26;99217.84;2074085;28;20040;-62
2021/05/14 00:50:48;;;;;;;3.73;2.00;;;;;;;18.56;59.37;99218.84;2069363;28;20041;-62
2021/05/14 00:51:50;;;;;;;3.20;2.00;;;;;;;18.57;59.21;99219.69;2073519;28;20132;-65
2021/05/14 00:52:52;;;;;;;5.10;2.15;;;;;;;18.57;59.19;99223.28;2071277;28;20026;-64
2021/05/14 00:53:52;;;;;;;3.92;1.95;;;;;;;18.56;59.39;99220.72;2072237;28;20037;-65
2021/05/14 00:54:53;;;;;;;4.03;1.70;;;;;;;18.56;59.32;99215.25;2072288;28;20108;-65
2021/05/14 00:55:54;;;;;;;4.18;2.13;;;;;;;18.55;59.25;99219.03;2078595;28;20021;-64
2021/05/14 00:56:55;;;;;;;2.47;1.50;;;;;;;18.55;59.35;99210.84;2077794;28;20033;-65
2021/05/14 00:57:56;;;;;;;2.70;1.77;;;;;;;18.57;59.29;99216.94;2073832;28;20481;-64
2021/05/14 00:58:56;;;;;;;3.97;2.00;;;;;;;18.56;59.40;99215.25;2078131;28;20021;-65
2021/05/14 00:59:57;;;;;;;3.43;1.87;;;;;;;18.58;59.27;99218.69;2070953;28;20504;-65
2021/05/14 01:00:57;;;;;;;2.73;1.80;;;;;;;18.56;59.24;99217.97;2071703;28;20053;-65
2021/05/14 01:01:58;;;;;;;3.10;1.47;;;;;;;18.55;59.21;99219.03;2076296;28;20690;-65
2021/05/14 01:02:58;;;;;;;3.00;1.80;;;;;;;18.55;59.31;99219.03;2071887;28;20049;-65
2021/05/14 01:03:59;;;;;;;3.67;1.60;;;;;;;18.55;59.27;99224.47;2069004;28;20029;-64
2021/05/14 01:05:00;;;;;;;3.43;1.80;;;;;;;18.55;59.21;99224.47;2074730;28;20026;-62
2021/05/14 01:06:00;;;;;;;3.60;2.00;;;;;;;18.55;59.29;99229.94;2076612;28;20129;-64
2021/05/14 01:07:01;;;;;;;3.73;1.73;;;;;;;18.55;59.27;99227.22;2077541;28;20025;-64
2021/05/14 01:08:02;;;;;;;4.28;1.80;;;;;;;18.55;59.17;99229.94;2071526;28;20747;-62
2021/05/14 01:09:03;;;;;;;3.23;1.70;;;;;;;18.55;59.19;99224.47;2076424;28;20040;-62
2021/05/14 01:10:04;;;;;;;3.47;2.30;;;;;;;18.55;59.07;99230.78;2071124;28;20050;-62
2021/05/14 01:11:05;;;;;;;2.10;1.70;;;;;;;18.54;59.21;99230.94;2071857;28;20795;-64
2021/05/14 01:12:07;;;;;;;2.80;1.43;;;;;;;18.53;59.20;99238.28;2076499;28;20261;-62
2021/05/14 01:13:08;;;;;;;3.58;1.98;;;;;;;18.55;59.13;99235.41;2072072;28;20021;-65
2021/05/14 01:14:09;;;;;;;2.90;1.80;;;;;;;18.55;59.08;99229.94;2071463;28;20030;-65
2021/05/14 01:15:11;;;;;;;3.30;1.75;;;;;;;18.54;59.15;99233.66;2071075;28;20033;-65
2021/05/14 01:16:11;;;;;;;2.78;1.85;;;;;;;18.54;59.17;99237.25;2071688;28;20021;-64
2021/05/14 01:17:11;;;;;;;4.03;2.07;;;;;;;18.54;59.15;99228.22;2071889;28;20033;-65
2021/05/14 01:18:12;;;;;;;2.73;1.57;;;;;;;18.54;59.26;99237.25;2071732;28;20488;-64
2021/05/14 01:19:12;;;;;;;3.00;1.50;;;;;;;18.55;59.25;99235.41;2071235;28;20601;-65
2021/05/14 01:20:14;;;;;;;4.00;1.70;;;;;;;18.54;59.16;99233.66;2073377;28;20036;-62
2021/05/14 01:21:14;;;;;;;3.78;1.98;;;;;;;18.53;59.28;99231.97;2071979;28;20626;-63
2021/05/14 01:22:14;;;;;;;4.50;1.70;;;;;;;18.54;59.20;99230.94;2071612;28;20431;-62
2021/05/14 01:23:15;;;;;;;2.50;1.47;;;;;;;18.53;59.11;99231.97;2074383;28;20090;-62
2021/05/14 01:24:16;;;;;;;2.90;1.60;;;;;;;18.53;59.19;99231.97;2062142;28;20076;-62
2021/05/14 01:25:17;;;;;;;2.05;1.60;;;;;;;18.53;59.22;99237.44;2062941;28;20094;-62
2021/05/14 01:26:19;;;;;;;3.20;1.53;;;;;;;18.51;59.19;99234.00;2071309;28;20026;-62
2021/05/14 01:27:20;;;;;;;4.05;1.90;;;;;;;18.53;59.21;99237.44;2070315;28;20026;-62
2021/05/14 01:28:20;;;;;;;5.40;1.97;;;;;;;18.52;59.10;99232.97;2075236;28;20110;-62
2021/05/14 01:29:21;;;;;;;2.77;1.77;;;;;;;18.52;59.11;99232.97;2071449;28;20025;-62
2021/05/14 01:30:22;;;;;;;3.23;1.50;;;;;;;18.53;59.22;99237.44;2073256;28;20026;-62
2021/05/14 01:31:23;;;;;;;1.77;1.30;;;;;;;18.52;59.27;99242.03;2074250;28;20021;-62
2021/05/14 01:32:23;;;;;;;1.75;1.38;;;;;;;18.53;59.12;99232.81;2073747;28;20052;-64
2021/05/14 01:33:24;;;;;;;1.93;1.43;;;;;;;18.53;59.12;99237.44;2071669;28;20084;-64
2021/05/14 01:34:24;;;;;;;2.03;1.53;;;;;;;18.54;59.17;99236.41;2071726;28;20029;-62
2021/05/14 01:35:25;;;;;;;4.63;1.80;;;;;;;18.54;59.19;99239.97;2071711;28;20751;-65
2021/05/14 01:36:26;;;;;;;2.10;1.57;;;;;;;18.53;59.08;99248.34;2070783;28;20566;-65
2021/05/14 01:37:26;;;;;;;3.63;1.90;;;;;;;18.52;59.10;99238.44;2078698;28;20061;-62
2021/05/14 01:38:27;;;;;;;2.27;1.37;;;;;;;18.53;59.32;99248.34;2075577;28;20092;-62
2021/05/14 01:39:27;;;;;;;3.33;1.33;;;;;;;18.53;59.02;99242.88;2071165;28;20029;-62
2021/05/14 01:40:28;;;;;;;3.80;1.73;;;;;;;18.54;59.04;99244.59;2071189;28;20069;-62
2021/05/14 01:41:28;;;;;;;2.80;1.43;;;;;;;18.53;59.15;99242.88;2071633;28;20043;-64
2021/05/14 01:42:29;;;;;;;3.50;1.47;;;;;;;18.53;59.17;99248.34;2071149;28;20117;-65
2021/05/14 01:43:29;;;;;;;2.87;1.10;;;;;;;18.52;59.09;99247.50;2071408;28;20028;-65
2021/05/14 01:44:30;;;;;;;1.83;1.50;;;;;;;18.53;59.25;99248.34;2076915;28;20488;-64
2021/05/14 01:45:31;;;;;;;3.97;1.63;;;;;;;18.53;59.16;99242.88;2075975;28;20028;-65
2021/05/14 01:46:32;;;;;;;2.70;1.30;;;;;;;18.51;59.23;99244.94;2070576;28;20025;-65
2021/05/14 01:47:32;;;;;;;4.55;1.83;;;;;;;18.53;59.12;99251.06;2071739;28;20564;-65
2021/05/14 01:48:33;;;;;;;3.83;1.80;;;;;;;18.53;59.03;99248.34;2071138;28;20523;-65
2021/05/14 01:49:33;;;;;;;3.30;1.60;;;;;;;18.52;59.10;99252.06;2070813;28;20030;-65
2021/05/14 01:50:34;;;;;;;2.90;1.83;;;;;;;18.52;59.03;99247.50;2079805;28;20139;-65
2021/05/14 01:51:35;;;;;;;3.47;1.57;;;;;;;18.51;59.23;99251.22;2075294;28;20021;-65
2021/05/14 01:52:35;;;;;;;3.03;1.60;;;;;;;18.51;59.05;99250.38;2080011;28;20021;-62
2021/05/14 01:53:36;;;;;;;2.70;1.80;;;;;;;18.52;59.04;99257.53;2077186;28;20036;-64
2021/05/14 01:54:36;;;;;;;2.73;1.80;;;;;;;18.52;58.97;99257.53;2077220;28;20025;-63
2021/05/14 01:55:38;;;;;;;2.87;2.00;;;;;;;18.53;59.12;99253.81;2079908;28;20103;-65
2021/05/14 01:56:39;;;;;;;2.05;1.40;;;;;;;18.52;59.12;99260.28;2076209;28;20038;-62
2021/05/14 01:57:39;;;;;;;3.10;2.13;;;;;;;18.51;59.25;99255.84;2079466;28;20036;-62
2021/05/14 01:58:40;;;;;;;4.60;2.63;;;;;;;18.51;58.92;99264.03;2071050;28;20026;-65
2021/05/14 01:59:40;;;;;;;3.10;1.53;;;;;;;18.50;59.20;99263.19;2071798;28;20053;-65
2021/05/14 02:00:41;;;;;;;2.87;1.70;;;;;;;18.51;59.02;99261.31;2078464;28;20179;-64
2021/05/14 02:01:43;;;;;;;4.20;1.65;;;;;;;18.51;59.07;99261.31;2073622;28;20493;-65
2021/05/14 02:02:43;;;;;;;2.42;1.60;;;;;;;18.50;59.20;99262.34;2075335;28;20065;-64
2021/05/14 02:03:44;;;;;;;2.10;1.40;;;;;;;18.50;59.22;99265.91;2070566;28;20068;-65
2021/05/14 02:04:45;;;;;;;1.73;1.25;;;;;;;18.50;59.13;99257.72;2071512;28;20025;-65
2021/05/14 02:05:45;;;;;;;4.60;1.40;;;;;;;18.51;59.05;99261.31;2071492;28;20033;-65
2021/05/14 02:06:45;;;;;;;2.27;1.30;;;;;;;18.52;59.03;99263.00;2072304;28;20026;-64
2021/05/14 02:07:46;;;;;;;3.37;1.90;;;;;;;18.51;59.06;99266.75;2071238;28;20605;-62
2021/05/14 02:08:47;;;;;;;4.53;1.93;;;;;;;18.50;59.06;99265.91;2073190;28;20030;-62
2021/05/14 02:09:48;;;;;;;2.17;1.50;;;;;;;18.51;59.12;99266.75;2071180;28;20157;-62
2021/05/14 02:10:49;;;;;;;3.77;1.50;;;;;;;18.51;59.06;99274.94;2077828;28;20622;-63
2021/05/14 02:11:49;;;;;;;1.83;1.27;;;;;;;18.51;58.97;99273.06;2070257;28;20386;-63
2021/05/14 02:12:50;;;;;;;3.30;1.63;;;;;;;18.50;59.18;99273.25;2070973;28;20120;-62
2021/05/14 02:13:51;;;;;;;3.40;1.30;;;;;;;18.50;59.08;99275.97;2074083;28;20025;-63
2021/05/14 02:14:51;;;;;;;3.70;2.00;;;;;;;18.49;59.07;99286.00;2062778;28;20038;-63
2021/05/14 02:15:52;;;;;;;2.97;1.17;;;;;;;18.50;59.21;99286.91;2062471;28;20121;-63
2021/05/14 02:16:52;;;;;;;2.53;1.53;;;;;;;18.49;59.13;99279.72;2070421;28;20084;-63
2021/05/14 02:17:52;;;;;;;4.83;1.83;;;;;;;18.49;59.14;99286.00;2071796;28;20069;-63
2021/05/14 02:18:53;;;;;;;2.10;1.57;;;;;;;18.49;59.01;99287.91;2072401;28;20033;-63
2021/05/14 02:19:54;;;;;;;3.27;1.93;;;;;;;18.49;59.19;99286.00;2072966;28;20013;-64
2021/05/14 02:20:55;;;;;;;4.40;1.25;;;;;;;18.50;59.10;99286.91;2071533;28;20022;-64
2021/05/14 02:21:55;;;;;;;2.47;1.40;;;;;;;18.51;59.11;99294.06;2070529;28;20037;-63
2021/05/14 02:22:56;;;;;;;1.53;1.20;;;;;;;18.49;58.92;99291.47;2071132;28;20460;-63
2021/05/14 02:23:56;;;;;;;2.83;1.53;;;;;;;18.48;58.98;99289.78;2071671;28;20125;-63
2021/05/14 02:24:57;;;;;;;2.40;1.60;;;;;;;18.49;59.08;99296.09;2074898;28;20037;-63
2021/05/14 02:25:58;;;;;;;1.83;1.33;;;;;;;18.51;59.03;99299.50;2073275;28;20128;-63
2021/05/14 02:26:58;;;;;;;1.67;1.40;;;;;;;18.47;58.96;99288.09;2075062;28;20080;-63
2021/05/14 02:27:59;;;;;;;3.67;1.30;;;;;;;18.50;59.03;99297.81;2071763;28;20467;-63
2021/05/14 02:28:59;;;;;;;3.50;1.57;;;;;;;18.50;59.03;99297.81;2067190;28;20468;-63
2021/05/14 02:30:10;;;;;;;1.80;1.40;;;;;;;18.48;59.04;99297.13;2075122;28;20017;-63
2021/05/14 02:31:10;;;;;;;3.15;1.50;;;;;;;18.48;59.05;99294.38;2074091;28;20192;-63
2021/05/14 02:32:10;;;;;;;1.93;1.60;;;;;;;18.47;58.99;99299.00;2071201;28;20075;-64
2021/05/14 02:33:11;;;;;;;3.67;1.20;;;;;;;18.47;59.19;99306.31;2076736;28;20032;-64
2021/05/14 02:34:12;;;;;;;2.33;1.30;;;;;;;18.48;58.98;99299.84;2075127;28;20017;-64
2021/05/14 02:35:14;;;;;;;2.38;1.38;;;;;;;18.48;59.01;99297.13;2076434;28;20511;-64
2021/05/14 02:36:14;;;;;;;1.92;1.40;;;;;;;18.47;59.01;99301.72;2074036;28;20132;-64
2021/05/14 02:37:15;;;;;;;3.03;1.70;;;;;;;18.47;58.91;99303.56;2072800;28;20022;-64
2021/05/14 02:38:16;;;;;;;2.95;1.60;;;;;;;18.48;58.97;99305.31;2070915;28;20447;-64
2021/05/14 02:39:16;;;;;;;5.23;1.83;;;;;;;18.49;58.93;99307.00;2062579;28;20034;-64
2021/05/14 02:40:17;;;;;;;2.10;0.97;;;;;;;18.48;59.01;99313.50;2062306;28;20026;-64
2021/05/14 02:41:17;;;;;;;2.10;1.43;;;;;;;18.46;58.89;99308.19;2073606;28;20033;-63
2021/05/14 02:42:18;;;;;;;1.60;1.30;;;;;;;18.48;58.87;99308.03;2071945;28;20052;-64
2021/05/14 02:43:18;;;;;;;2.73;1.20;;;;;;;18.47;59.01;99314.50;2071072;28;20030;-64
2021/05/14 02:44:19;;;;;;;6.70;1.73;;;;;;;18.47;58.93;99315.38;2073231;28;20041;-64
2021/05/14 02:45:19;;;;;;;1.90;1.30;;;;;;;18.47;58.81;99323.56;2075720;28;20072;-63
2021/05/14 02:46:20;;;;;;;2.93;1.40;;;;;;;18.46;58.82;99316.38;2072924;28;20509;-64
2021/05/14 02:47:20;;;;;;;1.80;1.23;;;;;;;18.46;58.96;99320.97;2077831;28;20033;-64
2021/05/14 02:48:21;;;;;;;2.23;1.57;;;;;;;18.46;58.83;99330.03;2062537;28;20045;-64
2021/05/14 02:49:21;;;;;;;5.63;1.93;;;;;;;18.47;58.76;99326.28;2062377;28;20054;-63
2021/05/14 02:50:22;;;;;;;2.20;1.27;;;;;;;18.47;58.79;99336.31;2070981;28;20029;-64
2021/05/14 02:51:23;;;;;;;3.08;1.48;;;;;;;18.47;59.00;99337.22;2073849;28;20488;-64
2021/05/14 02:52:23;;;;;;;2.30;1.37;;;;;;;18.46;58.84;99340.09;2077150;28;20425;-64
2021/05/14 02:53:24;;;;;;;5.00;1.77;;;;;;;18.46;58.91;99340.09;2065154;28;20028;-64
2021/05/14 02:54:24;;;;;;;2.20;1.40;;;;;;;18.45;58.94;99339.25;2071282;28;20109;-64
2021/05/14 02:55:25;;;;;;;3.67;1.60;;;;;;;18.46;58.77;99342.81;2075768;28;20037;-64
2021/05/14 02:56:28;;;;;;;3.47;1.87;;;;;;;18.45;58.85;99341.97;2071091;28;20124;-64
2021/05/14 02:57:29;;;;;;;2.30;1.60;;;;;;;18.45;58.81;99338.34;2070924;28;20037;-64
2021/05/14 02:58:29;;;;;;;3.67;1.40;;;;;;;18.46;58.84;99340.09;2076250;28;20029;-63
2021/05/14 02:59:30;;;;;;;4.17;1.57;;;;;;;18.45;58.78;99349.28;2076957;28;20064;-64
2021/05/14 03:00:30;;;;;;;2.80;1.43;;;;;;;18.45;58.83;99349.28;2067447;28;20057;-64
2021/05/14 03:01:30;;;;;;;5.47;1.87;;;;;;;18.45;58.83;99349.28;2067696;28;20073;-65
2021/05/14 03:02:31;;;;;;;2.70;1.50;;;;;;;18.44;58.92;99351.16;2071049;28;20608;-64
2021/05/14 03:03:31;;;;;;;2.77;1.53;;;;;;;18.45;58.88;99343.81;2070698;28;20108;-64
2021/05/14 03:04:32;;;;;;;2.70;1.30;;;;;;;18.45;58.83;99349.28;2065674;28;20030;-64
2021/05/14 03:05:33;;;;;;;1.93;1.50;;;;;;;18.46;58.85;99348.28;2067820;28;20791;-64
2021/05/14 03:06:33;;;;;;;1.90;1.33;;;;;;;18.45;58.60;99341.97;2065291;28;20053;-64
2021/05/14 03:07:33;;;;;;;4.00;2.00;;;;;;;18.45;58.94;99349.28;2071066;28;20069;-64
2021/05/14 03:08:35;;;;;;;1.97;1.37;;;;;;;18.45;58.95;99341.09;2070220;28;20704;-64
2021/05/14 03:09:35;;;;;;;2.13;1.40;;;;;;;18.45;58.86;99349.28;2065103;28;20511;-64
2021/05/14 03:10:37;;;;;;;4.27;1.30;;;;;;;18.45;58.83;99352.00;2070242;28;20429;-64
2021/05/14 03:11:37;;;;;;;2.72;1.48;;;;;;;18.44;58.74;99351.16;2073349;28;20021;-64
2021/05/14 03:12:38;;;;;;;2.13;1.37;;;;;;;18.45;58.96;99352.00;2072676;28;20041;-64
2021/05/14 03:13:38;;;;;;;2.47;1.50;;;;;;;18.45;58.83;99346.53;2075362;28;20036;-64
2021/05/14 03:14:39;;;;;;;1.80;1.27;;;;;;;18.45;58.84;99354.72;2069975;28;20026;-64
2021/05/14 03:15:39;;;;;;;3.83;1.70;;;;;;;18.45;58.79;99352.00;2070621;28;20041;-64
2021/05/14 03:16:40;;;;;;;3.17;1.80;;;;;;;18.44;58.71;99353.88;2071420;28;20037;-64
2021/05/14 03:17:40;;;;;;;1.93;1.30;;;;;;;18.45;58.73;99354.72;2066312;28;20057;-63
2021/05/14 03:18:41;;;;;;;2.00;1.50;;;;;;;18.45;58.63;99354.72;2069896;28;20021;-63
2021/05/14 03:19:41;;;;;;;3.20;1.77;;;;;;;18.45;58.58;99365.66;2071043;28;20026;-64
2021/05/14 03:20:41;;;;;;;2.77;1.37;;;;;;;18.43;58.84;99363.94;2070255;28;20136;-64
2021/05/14 03:21:43;;;;;;;2.47;1.27;;;;;;;18.45;58.82;99368.38;2062279;28;20030;-63
2021/05/14 03:22:43;;;;;;;2.20;1.30;;;;;;;18.45;58.77;99365.66;2060139;28;20022;-63
2021/05/14 03:23:44;;;;;;;2.33;1.33;;;;;;;18.45;58.72;99366.53;2070897;28;20034;-64
2021/05/14 03:24:44;;;;;;;2.33;1.27;;;;;;;18.46;58.58;99362.75;2070701;28;20477;-64
2021/05/14 03:25:45;;;;;;;1.87;1.37;;;;;;;18.45;58.66;99371.09;2070724;28;20028;-63
2021/05/14 03:26:48;;;;;;;2.03;1.33;;;;;;;18.45;58.69;99371.09;2071120;28;20022;-64
2021/05/14 03:27:48;;;;;;;2.08;1.45;;;;;;;18.45;58.64;99380.16;2070417;28;20531;-64
2021/05/14 03:28:49;;;;;;;3.20;1.77;;;;;;;18.43;58.75;99374.03;2070901;28;20143;-64
2021/05/14 03:29:49;;;;;;;2.20;1.30;;;;;;;18.43;58.63;99372.13;2070697;28;20103;-63
2021/05/14 03:30:51;;;;;;;2.83;1.43;;;;;;;18.43;58.62;99374.88;2069786;28;20104;-64
2021/05/14 03:31:51;;;;;;;;;;;;;;;18.38;58.77;99370.94;2071984;28;20485;-63
2021/05/14 03:32:52;;;;;;;2.85;1.75;;;;;;;18.39;58.87;99384.38;2072629;28;20320;-64
2021/05/14 03:33:52;;;;;;;1.77;1.30;;;;;;;18.40;58.81;99382.53;2070998;28;20021;-64
2021/05/14 03:34:53;;;;;;;2.80;1.57;;;;;;;18.39;58.84;99370.75;2070289;28;20026;-63
2021/05/14 03:35:53;;;;;;;2.87;1.20;;;;;;;18.40;58.85;99377.94;2064582;28;20026;-64
2021/05/14 03:36:54;;;;;;;2.10;1.07;;;;;;;18.41;58.88;99387.81;2064795;28;20069;-64
2021/05/14 03:37:54;;;;;;;2.17;1.67;;;;;;;18.41;58.83;99381.50;2069171;28;20362;-64
2021/05/14 03:38:57;;;;;;;2.97;1.40;;;;;;;18.41;58.69;99384.22;2070086;28;20033;-64
2021/05/14 03:40:03;;;;;;;4.13;1.35;;;;;;;18.42;58.55;99377.75;2070976;28;20107;-63
2021/05/14 03:41:17;;;;;;;2.05;1.40;;;;;;;18.41;58.87;99379.63;2073976;28;20135;-64
2021/05/14 03:42:23;;;;;;;1.67;1.20;;;;;;;18.42;58.68;99383.19;2069292;28;20053;-64
2021/05/14 03:43:23;;;;;;;2.58;1.52;;;;;;;18.41;58.75;99385.09;2070927;28;20037;-64
2021/05/14 03:44:24;;;;;;;2.10;1.40;;;;;;;18.41;58.62;99387.81;2070536;28;20037;-64
2021/05/14 03:45:24;;;;;;;2.07;1.43;;;;;;;18.40;58.74;99383.38;2071062;28;20049;-63
2021/05/14 03:46:30;;;;;;;2.30;1.77;;;;;;;18.41;58.72;99382.34;2070470;28;20783;-64
2021/05/14 03:47:30;;;;;;;1.98;1.00;;;;;;;18.40;58.70;99380.66;2070564;28;20041;-65
2021/05/14 03:48:31;;;;;;;2.90;1.60;;;;;;;18.42;58.84;99388.66;2072776;28;20076;-64
2021/05/14 03:49:37;;;;;;;3.17;1.40;;;;;;;18.41;58.60;99386.97;2070846;28;20396;-64
2021/05/14 03:50:38;;;;;;;2.70;1.52;;;;;;;18.41;58.51;99390.53;2070652;28;20049;-64
2021/05/14 03:51:38;;;;;;;3.17;1.30;;;;;;;18.41;58.72;99398.72;2070291;28;20026;-64
2021/05/14 03:52:39;;;;;;;1.73;1.27;;;;;;;18.41;58.69;99398.72;2068985;28;20032;-64
2021/05/14 03:53:40;;;;;;;1.77;1.13;;;;;;;18.41;58.73;99398.72;2069958;28;20026;-64
2021/05/14 03:54:41;;;;;;;2.25;1.13;;;;;;;18.41;58.74;99389.69;2070799;28;20437;-64
2021/05/14 03:55:42;;;;;;;1.97;1.37;;;;;;;18.40;58.55;99391.56;2070468;28;20052;-63
2021/05/14 03:56:42;;;;;;;1.73;1.00;;;;;;;18.41;58.52;99393.28;2065614;28;20101;-64
2021/05/14 03:57:43;;;;;;;1.90;1.30;;;;;;;18.40;58.51;99388.84;2061812;28;20772;-64
2021/05/14 03:58:43;;;;;;;3.47;1.27;;;;;;;18.41;58.63;99386.97;2070861;28;20028;-64
2021/05/14 03:59:44;;;;;;;2.40;1.40;;;;;;;18.41;58.58;99397.88;2071576;28;20527;-64
2021/05/14 04:00:45;;;;;;;2.13;1.20;;;;;;;18.41;58.52;99397.88;2077063;28;20025;-64
2021/05/14 04:01:45;;;;;;;1.50;1.10;;;;;;;18.40;58.54;99402.47;2072019;28;20765;-64
2021/05/14 04:02:45;;;;;;;2.40;1.40;;;;;;;18.40;58.49;99399.75;2070471;28;20890;-64
2021/05/14 04:03:46;;;;;;;2.37;1.33;;;;;;;18.39;58.40;99406.22;2069674;28;20022;-64
2021/05/14 04:04:46;;;;;;;2.10;1.43;;;;;;;18.40;58.47;99402.47;2072217;28;20364;-62
2021/05/14 04:05:48;;;;;;;2.50;1.50;;;;;;;18.40;58.52;99397.03;2072224;28;20028;-62
2021/05/14 04:06:49;;;;;;;2.65;1.20;;;;;;;18.40;58.56;99407.94;2066321;28;20041;-62
2021/05/14 04:07:49;;;;;;;2.50;1.63;;;;;;;18.40;58.57;99397.03;2073319;28;20120;-62
2021/05/14 04:08:49;;;;;;;2.10;1.30;;;;;;;18.39;58.39;99395.31;2072577;28;20026;-63
2021/05/14 04:10:00;;;;;;;2.07;1.13;;;;;;;18.40;58.62;99397.03;2070370;28;20105;-62
2021/05/14 04:14:38;;;;;;;2.65;1.48;;;;;;;18.37;58.58;99405.53;2071043;28;20033;-65
2021/05/14 04:15:38;;;;;;;1.63;1.13;;;;;;;18.38;58.54;99401.78;2070452;28;20109;-65
2021/05/14 04:16:39;;;;;;;3.07;1.60;;;;;;;18.38;58.40;99401.78;2070663;28;20553;-64
2021/05/14 04:17:39;;;;;;;2.60;1.63;;;;;;;18.39;58.53;99400.75;2073505;28;20022;-65
2021/05/14 04:18:40;;;;;;;2.63;1.30;;;;;;;18.39;58.47;99402.63;2070850;28;20022;-65
2021/05/14 04:19:40;;;;;;;1.70;1.50;;;;;;;18.40;58.70;99405.22;2069962;28;20029;-65
2021/05/14 04:20:41;;;;;;;1.90;1.30;;;;;;;18.40;58.32;99404.38;2074552;28;20505;-65
2021/05/14 04:21:41;;;;;;;1.50;1.40;;;;;;;18.39;58.41;99405.38;2070165;28;20112;-64
2021/05/14 04:22:41;;;;;;;2.10;1.33;;;;;;;18.39;58.50;99403.47;2074718;28;20726;-65
2021/05/14 04:23:42;;;;;;;3.17;1.93;;;;;;;18.38;58.58;99404.50;2071424;28;20025;-65
2021/05/14 04:24:42;;;;;;;2.10;1.13;;;;;;;18.38;58.75;99404.50;2071650;28;20807;-65
2021/05/14 04:25:43;;;;;;;3.17;1.67;;;;;;;18.38;58.40;99398.22;2066624;28;20026;-62
2021/05/14 04:26:43;;;;;;;2.03;1.20;;;;;;;18.38;58.56;99398.22;2063451;28;20489;-65
2021/05/14 04:27:44;;;;;;;3.00;1.70;;;;;;;18.38;58.50;99401.78;2075921;28;20079;-64
2021/05/14 04:28:45;;;;;;;4.13;1.10;;;;;;;18.38;58.59;99403.66;2071984;28;20030;-64
2021/05/14 04:29:45;;;;;;;2.60;1.23;;;;;;;18.38;58.43;99399.06;2072170;28;20053;-65
2021/05/14 04:30:46;;;;;;;2.20;1.67;;;;;;;18.38;58.55;99399.06;2077161;28;20682;-65
2021/05/14 04:31:47;;;;;;;2.27;1.30;;;;;;;18.39;58.46;99395.31;2072380;28;20033;-63
2021/05/14 04:32:48;;;;;;;2.47;1.60;;;;;;;18.38;58.52;99393.59;2073865;28;20029;-63
2021/05/14 04:33:48;;;;;;;2.33;1.50;;;;;;;18.37;58.50;99397.38;2071722;28;20040;-63
2021/05/14 04:34:49;;;;;;;3.00;1.27;;;;;;;18.38;58.57;99399.06;2072718;28;20037;-63
2021/05/14 04:35:50;;;;;;;2.10;1.40;;;;;;;18.38;58.54;99399.06;2071906;28;20060;-63
2021/05/14 04:36:51;;;;;;;3.00;1.33;;;;;;;18.39;58.40;99403.47;2071479;28;20021;-65
2021/05/14 04:37:51;;;;;;;2.37;1.13;;;;;;;18.37;58.40;99405.53;2071949;28;20483;-63
2021/05/14 04:38:51;;;;;;;4.03;1.20;;;;;;;18.37;58.54;99397.38;2072403;28;20026;-63
2021/05/14 04:39:52;;;;;;;2.50;1.33;;;;;;;18.38;58.52;99407.25;2075108;28;20151;-63
2021/05/14 04:40:52;;;;;;;4.60;1.50;;;;;;;18.38;58.35;99404.50;2073899;28;20536;-62
2021/05/14 04:41:53;;;;;;;4.03;1.70;;;;;;;18.38;58.41;99398.22;2077636;28;20028;-63
2021/05/14 04:43:00;;;;;;;2.00;1.30;;;;;;;18.39;58.54;99399.91;2072218;28;20124;-63
2021/05/14 04:44:00;;;;;;;2.55;1.23;;;;;;;18.39;58.34;99410.81;2067893;28;20037;-63
2021/05/14 04:45:01;;;;;;;2.60;1.20;;;;;;;18.38;58.42;99404.50;2076151;28;20125;-63
2021/05/14 04:46:02;;;;;;;2.43;1.47;;;;;;;18.39;58.46;99406.22;2071982;28;20045;-63
2021/05/14 04:47:02;;;;;;;2.47;1.70;;;;;;;18.38;58.42;99404.50;2072297;28;20118;-62
2021/05/14 04:48:05;;;;;;;1.97;1.40;;;;;;;18.38;58.35;99409.97;2073131;28;20546;-63
2021/05/14 04:49:05;;;;;;;2.67;1.10;;;;;;;18.38;58.49;99406.41;2074914;28;20483;-63
2021/05/14 04:50:06;;;;;;;2.53;1.40;;;;;;;18.38;58.49;99406.41;2073885;28;20080;-63